Details for Ryanair at LEGE




Go Back


Latest METAR
Local Time

LEGE 240000Z VRB01KT 4000 BR FEW020 M01/M01 Q1007

24/02/2018, 01:06:49

Description
Results
Ryanair Logo
Number of Pilots based at LEGE
0 Pilots Based here
Number of Ryanair Flights Departed from LEGE
1 Flights Departed
Number of Ryanair Flights Arrived at LEGE
1 Flights Arrived
Number of Ryanair Schedules Departing from LEGE
74 Schedules
Number of Ryanair Schedules Arriving at LEGE
73 Schedules
Number of Ryanair Schedules Departing from LEGE availible today
17 Schedules Today
Number of Ryanair Schedules Arriving at LEGE availible today
17 Schedules Today
Average Landing Rate at LEGE
-212 fpm
Ryanair Average Landing Rate at LEGE
-225 fpm
Total Fuel Purchased at LEGE by Ryanair
6,263.20 kgs / 13,807.85 lbs

Pilots Based at LEGE


Pilot ID
Pilot Name
Pilot Rank
No. of Flights
No. of Flying Hours
There are no pilots assigned to this hub!   Will you be the first?
Content